Time;durP1;ratioP1;P1;durP2;ratioP2;P2;SDS_P1;SDS_P2;PMS_P1;PMS_P2;Temp;Humidity;BMP_temperature;BMP_pressure;BME280_temperature;BME280_humidity;BME280_pressure;Samples;Min_cycle;Max_cycle;Signal;HPM_P1;HPM_P2
2022/03/14 00:01:30;;;;;;;8.90;4.35;;;;;;;;;;6095165;23;20025;-47
2022/03/14 00:03:58;;;;;;;8.55;3.83;;;;;;;;;;6095901;23;20003;-45
2022/03/14 00:06:23;;;;;;;9.98;3.95;;;;;;;;;;6094204;23;20011;-46
2022/03/14 00:08:48;;;;;;;9.07;3.70;;;;;;;;;;6093998;23;20007;-49
2022/03/14 00:11:15;;;;;;;7.50;3.67;;;;;;;;;;6094169;23;20019;-48
2022/03/14 00:13:46;;;;;;;8.07;3.33;;;;;;;;;;6095862;23;20014;-47
2022/03/14 00:16:22;;;;;;;7.82;3.72;;;;;;;;;;6094068;23;20542;-48
2022/03/14 00:18:48;;;;;;;4.35;2.92;;;;;;;;;;6095639;23;20082;-48
2022/03/14 00:21:14;;;;;;;6.43;3.17;;;;;;;;;;6094182;23;20010;-47
2022/03/14 00:23:39;;;;;;;6.53;3.00;;;;;;;;;;6095881;23;20022;-50
2022/03/14 00:26:06;;;;;;;7.35;3.20;;;;;;;;;;6094803;23;20117;-45
2022/03/14 00:28:31;;;;;;;7.13;2.88;;;;;;;;;;6094696;23;20031;-50
2022/03/14 00:30:56;;;;;;;10.40;3.63;;;;;;;;;;6094239;23;20010;-46
2022/03/14 00:33:21;;;;;;;6.20;3.67;;;;;;;;;;6095171;23;20015;-48
2022/03/14 00:35:47;;;;;;;5.15;2.78;;;;;;;;;;6093557;23;20708;-49
2022/03/14 00:38:16;;;;;;;2.97;2.35;;;;;;;;;;6095181;23;20014;-45
2022/03/14 00:40:41;;;;;;;7.65;2.85;;;;;;;;;;6094014;23;20011;-47
2022/03/14 00:43:07;;;;;;;4.30;2.50;;;;;;;;;;6095976;23;20066;-46
2022/03/14 00:45:33;;;;;;;5.22;2.83;;;;;;;;;;6093625;23;20852;-47
2022/03/14 00:47:58;;;;;;;4.95;2.85;;;;;;;;;;6095886;23;20021;-48
2022/03/14 00:50:25;;;;;;;8.02;3.75;;;;;;;;;;6091214;23;20042;-48
2022/03/14 00:52:51;;;;;;;7.15;4.78;;;;;;;;;;6119119;23;20014;-46
2022/03/14 00:55:16;;;;;;;4.13;2.78;;;;;;;;;;6096006;23;20101;-47
2022/03/14 00:57:41;;;;;;;7.55;3.05;;;;;;;;;;6096407;23;20006;-47
2022/03/14 01:00:07;;;;;;;5.50;3.67;;;;;;;;;;6096716;23;20050;-47
2022/03/14 01:02:32;;;;;;;5.78;2.83;;;;;;;;;;6096470;23;20141;-47
2022/03/14 01:04:58;;;;;;;9.93;4.50;;;;;;;;;;6096820;23;20553;-50
2022/03/14 01:07:23;;;;;;;6.90;3.78;;;;;;;;;;6097723;23;20018;-48
2022/03/14 01:09:48;;;;;;;7.38;3.35;;;;;;;;;;6097175;23;20038;-47
2022/03/14 01:12:13;;;;;;;6.55;3.17;;;;;;;;;;6096920;23;20063;-46
2022/03/14 01:14:39;;;;;;;5.93;3.70;;;;;;;;;;6097525;23;20009;-48
2022/03/14 01:17:04;;;;;;;5.25;2.97;;;;;;;;;;6097478;23;20097;-46
2022/03/14 01:19:29;;;;;;;11.40;3.83;;;;;;;;;;6096476;23;20032;-50
2022/03/14 01:21:54;;;;;;;6.95;3.38;;;;;;;;;;6120078;23;20081;-47
2022/03/14 01:24:20;;;;;;;11.73;4.38;;;;;;;;;;6097344;23;20010;-49
2022/03/14 01:26:45;;;;;;;5.65;3.70;;;;;;;;;;6094943;23;20015;-46
2022/03/14 01:29:11;;;;;;;7.20;4.07;;;;;;;;;;6095644;23;20025;-46
2022/03/14 01:31:36;;;;;;;7.82;4.05;;;;;;;;;;6096402;23;20010;-47
2022/03/14 01:34:02;;;;;;;6.75;3.65;;;;;;;;;;6097522;23;20010;-46
2022/03/14 01:36:27;;;;;;;10.90;4.38;;;;;;;;;;6096184;23;20080;-46
2022/03/14 01:38:52;;;;;;;5.85;3.25;;;;;;;;;;6096715;23;20023;-46
2022/03/14 01:41:18;;;;;;;7.25;4.13;;;;;;;;;;6096421;23;20014;-45
2022/03/14 01:43:44;;;;;;;7.15;3.88;;;;;;;;;;6097564;23;20363;-45
2022/03/14 01:46:10;;;;;;;6.45;3.85;;;;;;;;;;6096399;23;20022;-45
2022/03/14 01:48:35;;;;;;;6.72;4.30;;;;;;;;;;6092995;23;20007;-47
2022/03/14 01:51:01;;;;;;;7.07;3.92;;;;;;;;;;6093872;23;20769;-46
2022/03/14 01:53:29;;;;;;;8.15;3.72;;;;;;;;;;6094171;23;20046;-46
2022/03/14 01:55:54;;;;;;;6.57;3.90;;;;;;;;;;6093402;23;20093;-46
2022/03/14 01:58:21;;;;;;;7.28;3.97;;;;;;;;;;6097489;23;20014;-48
2022/03/14 02:00:46;;;;;;;16.05;3.92;;;;;;;;;;6094096;23;20007;-48
2022/03/14 02:03:11;;;;;;;8.85;3.45;;;;;;;;;;6096671;23;20093;-47
2022/03/14 02:05:37;;;;;;;6.75;3.75;;;;;;;;;;6096732;23;20029;-48
2022/03/14 02:08:05;;;;;;;8.38;4.22;;;;;;;;;;6094540;23;20066;-47
2022/03/14 02:10:31;;;;;;;7.93;3.55;;;;;;;;;;6096184;23;20011;-44
2022/03/14 02:12:56;;;;;;;4.68;3.72;;;;;;;;;;6094858;23;20107;-44
2022/03/14 02:15:22;;;;;;;7.25;3.53;;;;;;;;;;6095071;23;20042;-45
2022/03/14 02:17:47;;;;;;;5.78;3.63;;;;;;;;;;6094954;23;20037;-46
2022/03/14 02:20:12;;;;;;;4.35;3.33;;;;;;;;;;6095881;23;20049;-45
2022/03/14 02:22:37;;;;;;;9.25;3.13;;;;;;;;;;6093860;23;20745;-46
2022/03/14 02:25:07;;;;;;;19.50;4.40;;;;;;;;;;6093660;23;20047;-43
2022/03/14 02:27:33;;;;;;;4.15;3.05;;;;;;;;;;6094968;23;20511;-46
2022/03/14 02:29:58;;;;;;;7.25;3.45;;;;;;;;;;6093926;23;20011;-46
2022/03/14 02:32:24;;;;;;;4.53;3.10;;;;;;;;;;6097153;23;20451;-46
2022/03/14 02:34:49;;;;;;;9.10;3.88;;;;;;;;;;6094596;23;20417;-44
2022/03/14 02:37:14;;;;;;;5.80;3.83;;;;;;;;;;6096590;23;20018;-44
2022/03/14 02:39:40;;;;;;;9.30;4.75;;;;;;;;;;6095795;23;20019;-45
2022/03/14 02:42:06;;;;;;;5.25;3.17;;;;;;;;;;6096893;23;20075;-44
2022/03/14 02:44:31;;;;;;;7.32;2.95;;;;;;;;;;6092108;23;20019;-46
2022/03/14 02:46:57;;;;;;;9.20;3.08;;;;;;;;;;6089536;23;20022;-45
2022/03/14 02:49:22;;;;;;;5.78;3.20;;;;;;;;;;6089393;23;20078;-43
2022/03/14 02:51:47;;;;;;;6.80;3.17;;;;;;;;;;6091917;23;20032;-44
2022/03/14 02:54:13;;;;;;;5.10;2.67;;;;;;;;;;6092530;23;20011;-45
2022/03/14 02:56:39;;;;;;;3.92;2.53;;;;;;;;;;6092346;23;20021;-44
2022/03/14 02:59:05;;;;;;;4.80;2.55;;;;;;;;;;6090488;23;20032;-44
2022/03/14 03:01:31;;;;;;;7.25;3.70;;;;;;;;;;6091000;23;20014;-44
2022/03/14 03:03:56;;;;;;;6.65;3.60;;;;;;;;;;6091763;23;20096;-45
2022/03/14 03:06:23;;;;;;;5.25;2.90;;;;;;;;;;6089400;23;20003;-44
2022/03/14 03:08:52;;;;;;;4.53;2.70;;;;;;;;;;6091332;23;20018;-44
2022/03/14 03:11:18;;;;;;;4.20;3.17;;;;;;;;;;6090980;23;20573;-45
2022/03/14 03:13:43;;;;;;;6.20;2.58;;;;;;;;;;6089593;23;20018;-44
2022/03/14 03:16:09;;;;;;;5.40;2.58;;;;;;;;;;6091377;23;20014;-45
2022/03/14 03:18:35;;;;;;;6.50;2.63;;;;;;;;;;6090375;23;20026;-46
2022/03/14 03:21:00;;;;;;;6.07;2.72;;;;;;;;;;6093958;23;20011;-45
2022/03/14 03:23:26;;;;;;;3.67;2.42;;;;;;;;;;6093406;23;20041;-47
2022/03/14 03:25:51;;;;;;;3.22;2.55;;;;;;;;;;6095917;23;20025;-45
2022/03/14 03:28:16;;;;;;;7.25;2.40;;;;;;;;;;6094374;23;20018;-46
2022/03/14 03:30:41;;;;;;;5.97;3.25;;;;;;;;;;6090387;23;20014;-45
2022/03/14 03:33:07;;;;;;;4.35;2.65;;;;;;;;;;6089151;23;20018;-45
2022/03/14 03:35:32;;;;;;;11.85;3.30;;;;;;;;;;6088321;23;20014;-46
2022/03/14 03:37:57;;;;;;;8.82;2.47;;;;;;;;;;6091280;23;20444;-48
2022/03/14 03:40:22;;;;;;;5.75;2.75;;;;;;;;;;6083125;23;20018;-46
2022/03/14 03:42:48;;;;;;;6.30;2.88;;;;;;;;;;6091376;23;20471;-46
2022/03/14 03:45:13;;;;;;;5.32;2.50;;;;;;;;;;6088520;23;20071;-46
2022/03/14 03:47:39;;;;;;;4.07;2.90;;;;;;;;;;6088311;23;20014;-45
2022/03/14 03:50:05;;;;;;;4.93;2.70;;;;;;;;;;6090365;23;20082;-45
2022/03/14 03:52:30;;;;;;;7.63;3.63;;;;;;;;;;6090000;23;20014;-46
2022/03/14 03:54:55;;;;;;;6.30;2.42;;;;;;;;;;6090655;23;20117;-45
2022/03/14 03:57:21;;;;;;;9.63;3.28;;;;;;;;;;6088853;23;20096;-45
2022/03/14 03:59:46;;;;;;;8.45;2.30;;;;;;;;;;6090006;23;20029;-47
2022/03/14 04:02:11;;;;;;;9.77;2.22;;;;;;;;;;6091136;23;20090;-48
2022/03/14 04:04:37;;;;;;;5.13;3.40;;;;;;;;;;6087825;23;20791;-47
2022/03/14 04:07:06;;;;;;;8.20;2.33;;;;;;;;;;6090868;23;20025;-46
2022/03/14 04:09:31;;;;;;;9.88;2.15;;;;;;;;;;6090317;23;20029;-46
2022/03/14 04:11:56;;;;;;;6.63;2.72;;;;;;;;;;6090764;23;20019;-46
2022/03/14 04:14:22;;;;;;;3.28;2.53;;;;;;;;;;6088931;23;20019;-45
2022/03/14 04:16:47;;;;;;;11.15;2.00;;;;;;;;;;6090724;23;20014;-46
2022/03/14 04:19:12;;;;;;;10.60;2.80;;;;;;;;;;6089909;23;20030;-45
2022/03/14 04:21:38;;;;;;;6.82;3.15;;;;;;;;;;6088983;23;20013;-46
2022/03/14 04:24:06;;;;;;;5.68;2.85;;;;;;;;;;6089767;23;20045;-46
2022/03/14 04:26:31;;;;;;;15.30;3.05;;;;;;;;;;6089705;23;21480;-45
2022/03/14 04:28:56;;;;;;;4.43;2.85;;;;;;;;;;6095594;23;20011;-45
2022/03/14 04:31:22;;;;;;;7.75;2.78;;;;;;;;;;6089140;23;20045;-45
2022/03/14 04:33:47;;;;;;;6.53;3.03;;;;;;;;;;6090066;23;20014;-47
2022/03/14 04:36:13;;;;;;;6.05;2.28;;;;;;;;;;6090554;23;20015;-47
2022/03/14 04:38:39;;;;;;;5.85;3.10;;;;;;;;;;6090172;23;20018;-46
2022/03/14 04:41:04;;;;;;;5.47;2.40;;;;;;;;;;6087658;23;20045;-45
2022/03/14 04:43:30;;;;;;;4.53;2.88;;;;;;;;;;6089606;23;20033;-46
2022/03/14 04:45:55;;;;;;;4.22;2.28;;;;;;;;;;6090544;23;20010;-44
2022/03/14 04:48:20;;;;;;;7.35;2.67;;;;;;;;;;6088559;23;20014;-46
2022/03/14 04:50:46;;;;;;;9.77;2.97;;;;;;;;;;6089152;23;20027;-44
2022/03/14 04:53:11;;;;;;;9.30;3.50;;;;;;;;;;6090101;23;20010;-45
2022/03/14 04:55:36;;;;;;;3.70;2.47;;;;;;;;;;6081096;23;20766;-45
2022/03/14 04:58:04;;;;;;;7.60;2.75;;;;;;;;;;6090829;23;20043;-45
2022/03/14 05:00:30;;;;;;;8.65;3.20;;;;;;;;;;6089429;23;20525;-46
2022/03/14 05:03:06;;;;;;;7.13;2.97;;;;;;;;;;6089973;23;20011;-47
2022/03/14 05:05:31;;;;;;;6.32;2.58;;;;;;;;;;6089359;23;20045;-45
2022/03/14 05:07:56;;;;;;;7.40;3.22;;;;;;;;;;6090410;23;20010;-45
2022/03/14 05:10:22;;;;;;;8.30;3.40;;;;;;;;;;6090432;23;20021;-44
2022/03/14 05:12:47;;;;;;;6.53;3.17;;;;;;;;;;6087650;23;20021;-44
2022/03/14 05:15:15;;;;;;;5.47;3.17;;;;;;;;;;6090653;23;20010;-46
2022/03/14 05:17:40;;;;;;;6.65;3.88;;;;;;;;;;6089687;23;20046;-45
2022/03/14 05:20:06;;;;;;;6.60;3.08;;;;;;;;;;6090508;23;20078;-45
2022/03/14 05:22:32;;;;;;;12.45;4.20;;;;;;;;;;6088988;23;20592;-45
2022/03/14 05:24:57;;;;;;;6.75;3.50;;;;;;;;;;6090800;23;20035;-44
2022/03/14 05:27:23;;;;;;;9.20;3.47;;;;;;;;;;6088220;23;20074;-46
2022/03/14 05:29:49;;;;;;;9.82;4.00;;;;;;;;;;6089984;23;20018;-45
2022/03/14 05:32:14;;;;;;;13.15;4.30;;;;;;;;;;6089442;23;20101;-45
2022/03/14 05:34:39;;;;;;;7.28;3.55;;;;;;;;;;6093674;23;20093;-44
2022/03/14 05:37:04;;;;;;;11.05;3.40;;;;;;;;;;6089764;23;20043;-44
2022/03/14 05:39:30;;;;;;;5.78;3.05;;;;;;;;;;6090231;23;20026;-45
2022/03/14 05:41:55;;;;;;;6.45;3.10;;;;;;;;;;6091418;23;20007;-44
2022/03/14 05:44:21;;;;;;;5.28;3.00;;;;;;;;;;6092507;23;20021;-48
2022/03/14 05:46:46;;;;;;;6.90;3.55;;;;;;;;;;6090652;23;20034;-45
2022/03/14 05:49:11;;;;;;;5.13;2.88;;;;;;;;;;6090295;23;20010;-53
2022/03/14 05:51:37;;;;;;;10.80;3.85;;;;;;;;;;6090582;23;20844;-44
2022/03/14 05:54:03;;;;;;;6.72;4.38;;;;;;;;;;6092358;23;20018;-46
2022/03/14 05:56:29;;;;;;;6.60;3.80;;;;;;;;;;6091303;23;20049;-45
2022/03/14 05:58:54;;;;;;;10.82;4.55;;;;;;;;;;6091526;23;20038;-45
2022/03/14 06:01:22;;;;;;;8.05;3.90;;;;;;;;;;6091152;23;20019;-44
2022/03/14 06:03:47;;;;;;;8.93;4.88;;;;;;;;;;6093002;23;20030;-47
2022/03/14 06:06:13;;;;;;;11.30;4.72;;;;;;;;;;6093465;23;20015;-46
2022/03/14 06:08:38;;;;;;;4.95;4.10;;;;;;;;;;6095385;23;19999;-46
2022/03/14 06:11:07;;;;;;;11.98;5.22;;;;;;;;;;6094860;23;20047;-45
2022/03/14 06:13:33;;;;;;;7.00;4.20;;;;;;;;;;6093943;23;20086;-44
2022/03/14 06:15:58;;;;;;;10.48;4.70;;;;;;;;;;6095499;23;20070;-44
2022/03/14 06:18:24;;;;;;;10.68;4.90;;;;;;;;;;6095843;23;20025;-46
2022/03/14 06:20:49;;;;;;;10.00;5.00;;;;;;;;;;6088258;23;20740;-46
2022/03/14 06:23:16;;;;;;;15.02;5.63;;;;;;;;;;6085525;23;20038;-46
2022/03/14 06:25:42;;;;;;;11.77;5.75;;;;;;;;;;6083334;23;20014;-46
2022/03/14 06:28:07;;;;;;;15.75;5.60;;;;;;;;;;6085329;23;20014;-45
2022/03/14 06:30:32;;;;;;;10.05;4.55;;;;;;;;;;6085699;23;20006;-45
2022/03/14 06:32:58;;;;;;;15.60;5.68;;;;;;;;;;6094644;23;20016;-45
2022/03/14 06:35:23;;;;;;;8.60;4.63;;;;;;;;;;6095262;23;20026;-46
2022/03/14 06:37:50;;;;;;;11.43;4.50;;;;;;;;;;6095238;23;20170;-47
2022/03/14 06:40:15;;;;;;;11.80;4.93;;;;;;;;;;6094391;23;20029;-46
2022/03/14 06:42:42;;;;;;;12.88;5.68;;;;;;;;;;6095088;23;20006;-48
2022/03/14 06:45:11;;;;;;;14.32;6.05;;;;;;;;;;6095546;23;20102;-46
2022/03/14 06:47:38;;;;;;;15.13;6.07;;;;;;;;;;6093634;23;20021;-46
2022/03/14 06:50:03;;;;;;;10.15;5.30;;;;;;;;;;6095933;23;20085;-46
2022/03/14 06:52:28;;;;;;;19.30;6.20;;;;;;;;;;6096086;23;20046;-45
2022/03/14 06:54:54;;;;;;;17.38;6.53;;;;;;;;;;6093601;23;20006;-44
2022/03/14 06:57:19;;;;;;;10.25;4.90;;;;;;;;;;6094280;23;20078;-46
2022/03/14 06:59:45;;;;;;;12.40;5.95;;;;;;;;;;6094041;23;20018;-44
2022/03/14 07:02:11;;;;;;;13.57;7.40;;;;;;;;;;6095430;23;20089;-45
2022/03/14 07:04:36;;;;;;;13.75;5.80;;;;;;;;;;6092186;23;20014;-44
2022/03/14 07:07:05;;;;;;;10.57;6.43;;;;;;;;;;6095437;23;20511;-44
2022/03/14 07:09:31;;;;;;;12.90;5.63;;;;;;;;;;6092774;23;20393;-48
2022/03/14 07:11:57;;;;;;;9.95;5.60;;;;;;;;;;6095544;23;20018;-45
2022/03/14 07:14:22;;;;;;;10.00;6.22;;;;;;;;;;6094011;23;20010;-43
2022/03/14 07:16:48;;;;;;;13.63;5.40;;;;;;;;;;6094387;23;20019;-45
2022/03/14 07:19:13;;;;;;;11.80;5.07;;;;;;;;;;6092322;23;20054;-44
2022/03/14 07:21:38;;;;;;;9.48;5.10;;;;;;;;;;6096005;23;20017;-43
2022/03/14 07:24:04;;;;;;;14.52;5.50;;;;;;;;;;6096689;23;20014;-44
2022/03/14 07:26:29;;;;;;;9.82;4.50;;;;;;;;;;6091678;23;20085;-44
2022/03/14 07:28:54;;;;;;;9.73;4.60;;;;;;;;;;6095957;23;20030;-46
2022/03/14 07:31:21;;;;;;;11.82;4.20;;;;;;;;;;6091593;23;20046;-44
2022/03/14 07:33:47;;;;;;;16.88;3.83;;;;;;;;;;6092836;23;20109;-46
2022/03/14 07:36:13;;;;;;;9.40;4.28;;;;;;;;;;6095188;23;20014;-47
2022/03/14 07:38:38;;;;;;;16.70;5.00;;;;;;;;;;6094515;23;20022;-45
2022/03/14 07:41:03;;;;;;;9.05;3.50;;;;;;;;;;6095061;23;20085;-47
2022/03/14 07:43:28;;;;;;;11.13;4.40;;;;;;;;;;6093452;23;20023;-46
2022/03/14 07:45:54;;;;;;;11.60;4.07;;;;;;;;;;6095071;23;20119;-46
2022/03/14 07:48:19;;;;;;;13.70;4.28;;;;;;;;;;6094497;23;20062;-43
2022/03/14 07:50:45;;;;;;;12.80;4.05;;;;;;;;;;6091935;23;20287;-43
2022/03/14 07:53:10;;;;;;;8.68;3.10;;;;;;;;;;6093550;23;20010;-45
2022/03/14 07:55:36;;;;;;;12.73;4.13;;;;;;;;;;6093863;23;20101;-44
2022/03/14 07:58:01;;;;;;;18.23;4.22;;;;;;;;;;6093739;23;20038;-45
2022/03/14 08:00:26;;;;;;;6.15;2.42;;;;;;;;;;6094250;23;20022;-44
2022/03/14 08:02:52;;;;;;;13.48;3.75;;;;;;;;;;6091087;23;20345;-44
2022/03/14 08:05:23;;;;;;;8.57;3.33;;;;;;;;;;6095675;23;20025;-48
2022/03/14 08:07:49;;;;;;;9.93;2.67;;;;;;;;;;6094394;23;20017;-45
2022/03/14 08:10:17;;;;;;;11.52;3.53;;;;;;;;;;6086826;23;20014;-46
2022/03/14 08:12:48;;;;;;;11.80;3.90;;;;;;;;;;6091472;23;20540;-45
2022/03/14 08:15:24;;;;;;;7.68;2.58;;;;;;;;;;6091754;23;20033;-45
2022/03/14 08:17:50;;;;;;;5.85;2.67;;;;;;;;;;6088910;23;20026;-46
2022/03/14 08:20:15;;;;;;;10.20;3.42;;;;;;;;;;6092259;23;20870;-46
2022/03/14 08:22:40;;;;;;;16.35;3.33;;;;;;;;;;6090246;23;20019;-47
2022/03/14 08:25:06;;;;;;;5.85;2.83;;;;;;;;;;6093363;23;20014;-47
2022/03/14 08:27:31;;;;;;;9.07;3.30;;;;;;;;;;6087743;23;20010;-46
2022/03/14 08:29:56;;;;;;;11.38;3.17;;;;;;;;;;6091826;23;20006;-45
2022/03/14 08:32:23;;;;;;;12.98;3.22;;;;;;;;;;6091072;23;20023;-46
2022/03/14 08:34:52;;;;;;;9.82;3.88;;;;;;;;;;6092877;23;20010;-46
2022/03/14 08:37:17;;;;;;;14.30;3.30;;;;;;;;;;6094308;23;20011;-45
2022/03/14 08:39:42;;;;;;;6.63;3.15;;;;;;;;;;6095109;23;20050;-49
2022/03/14 08:42:08;;;;;;;8.48;3.13;;;;;;;;;;6090181;23;20021;-45
2022/03/14 08:44:34;;;;;;;10.00;3.15;;;;;;;;;;6089306;23;20728;-45
2022/03/14 08:46:59;;;;;;;7.80;2.90;;;;;;;;;;6090300;23;20026;-45
2022/03/14 08:49:25;;;;;;;15.63;4.22;;;;;;;;;;6089215;23;20348;-45
2022/03/14 08:51:50;;;;;;;10.80;3.22;;;;;;;;;;6091142;23;20644;-46
2022/03/14 08:54:15;;;;;;;18.63;3.17;;;;;;;;;;6091070;23;20017;-47
2022/03/14 08:56:41;;;;;;;7.38;3.13;;;;;;;;;;6090166;23;20015;-47
2022/03/14 08:59:10;;;;;;;11.88;2.85;;;;;;;;;;6092667;23;20054;-44
2022/03/14 09:01:35;;;;;;;10.38;3.60;;;;;;;;;;6093151;23;20017;-45
2022/03/14 09:04:00;;;;;;;10.73;3.70;;;;;;;;;;6085568;23;20015;-48
2022/03/14 09:06:28;;;;;;;8.65;3.22;;;;;;;;;;6088295;23;20030;-46
2022/03/14 09:08:53;;;;;;;11.65;2.78;;;;;;;;;;6088615;23;20070;-45
2022/03/14 09:11:19;;;;;;;17.52;3.40;;;;;;;;;;6090706;23;20021;-45
2022/03/14 09:13:44;;;;;;;9.65;3.13;;;;;;;;;;6091856;23;20029;-45
2022/03/14 09:16:09;;;;;;;12.82;2.85;;;;;;;;;;6092565;23;20030;-47
2022/03/14 09:18:35;;;;;;;18.17;4.60;;;;;;;;;;6091552;23;20014;-45
2022/03/14 09:21:00;;;;;;;15.38;3.20;;;;;;;;;;6094273;23;20018;-49
2022/03/14 09:23:26;;;;;;;18.65;2.78;;;;;;;;;;6091483;23;20019;-45
2022/03/14 09:25:52;;;;;;;13.73;2.67;;;;;;;;;;6093165;23;20074;-45
2022/03/14 09:28:17;;;;;;;6.30;2.58;;;;;;;;;;6092815;23;20022;-46
2022/03/14 09:30:43;;;;;;;11.85;3.53;;;;;;;;;;6094434;23;20017;-44
2022/03/14 09:33:09;;;;;;;5.47;2.67;;;;;;;;;;6091267;23;20030;-46
2022/03/14 09:35:34;;;;;;;10.23;2.72;;;;;;;;;;6093800;23;20015;-46
2022/03/14 09:38:00;;;;;;;13.85;4.55;;;;;;;;;;6092680;23;20023;-45
2022/03/14 09:40:28;;;;;;;11.98;3.05;;;;;;;;;;6090062;23;20030;-46
2022/03/14 09:42:55;;;;;;;7.07;2.90;;;;;;;;;;6092788;23;20682;-46
2022/03/14 09:45:20;;;;;;;10.65;3.10;;;;;;;;;;6092625;23;20030;-45
2022/03/14 09:47:48;;;;;;;17.00;4.05;;;;;;;;;;6094097;23;20986;-45
2022/03/14 09:50:15;;;;;;;16.02;5.30;;;;;;;;;;6093885;23;20030;-46
2022/03/14 09:52:40;;;;;;;15.20;3.35;;;;;;;;;;6092952;23;20018;-49
2022/03/14 09:55:07;;;;;;;13.18;3.20;;;;;;;;;;6092880;23;20058;-46
2022/03/14 09:57:32;;;;;;;9.88;3.35;;;;;;;;;;6091381;23;20010;-45
2022/03/14 09:59:58;;;;;;;11.40;3.53;;;;;;;;;;6093619;23;20086;-45
2022/03/14 10:02:23;;;;;;;9.80;2.50;;;;;;;;;;6092171;23;20045;-47
2022/03/14 10:04:49;;;;;;;12.10;2.50;;;;;;;;;;6090416;23;20017;-44
2022/03/14 10:07:14;;;;;;;10.05;3.33;;;;;;;;;;6093724;23;20058;-46
2022/03/14 10:09:39;;;;;;;6.45;3.15;;;;;;;;;;6090848;23;20015;-47
2022/03/14 10:12:05;;;;;;;8.38;3.28;;;;;;;;;;6092136;23;20024;-45
2022/03/14 10:14:31;;;;;;;14.05;2.63;;;;;;;;;;6089774;23;20029;-45
2022/03/14 10:16:56;;;;;;;6.25;1.88;;;;;;;;;;6093366;23;20018;-46
2022/03/14 10:19:31;;;;;;;14.40;2.95;;;;;;;;;;6091219;23;20082;-47
2022/03/14 10:22:10;;;;;;;11.43;2.78;;;;;;;;;;6095120;23;20025;-47
2022/03/14 10:24:38;;;;;;;11.45;2.60;;;;;;;;;;6090414;23;20006;-47
2022/03/14 10:27:04;;;;;;;9.75;1.92;;;;;;;;;;6094143;23;20015;-46
2022/03/14 10:29:30;;;;;;;10.50;2.13;;;;;;;;;;6085760;23;20014;-46
2022/03/14 10:31:56;;;;;;;14.65;2.45;;;;;;;;;;6091805;23;20062;-44
2022/03/14 10:34:21;;;;;;;4.97;1.80;;;;;;;;;;6090937;23;20025;-45
2022/03/14 10:36:49;;;;;;;10.50;2.42;;;;;;;;;;6092702;23;20062;-45
2022/03/14 10:39:15;;;;;;;7.07;2.05;;;;;;;;;;6089860;23;20082;-45
2022/03/14 10:41:41;;;;;;;7.05;1.90;;;;;;;;;;6094746;23;20018;-46
2022/03/14 10:44:07;;;;;;;11.02;2.80;;;;;;;;;;6092567;23;20018;-46
2022/03/14 10:46:32;;;;;;;12.77;2.35;;;;;;;;;;6090427;23;20041;-44
2022/03/14 10:48:58;;;;;;;8.32;2.17;;;;;;;;;;6092507;23;20019;-45
2022/03/14 10:51:23;;;;;;;14.02;2.35;;;;;;;;;;6092504;23;20022;-46
2022/03/14 10:53:48;;;;;;;8.43;2.75;;;;;;;;;;6091294;23;20014;-45
2022/03/14 10:56:14;;;;;;;9.23;1.98;;;;;;;;;;6091575;23;20034;-46
2022/03/14 10:58:40;;;;;;;11.88;2.63;;;;;;;;;;6093248;23;20033;-48
2022/03/14 11:01:06;;;;;;;11.07;2.22;;;;;;;;;;6093878;23;20023;-45
2022/03/14 11:03:35;;;;;;;3.20;1.80;;;;;;;;;;6092696;23;20022;-45
2022/03/14 11:06:04;;;;;;;4.23;1.93;;;;;;;;;;6090550;23;20018;-47
2022/03/14 11:08:29;;;;;;;7.80;2.15;;;;;;;;;;6092067;23;20015;-47
2022/03/14 11:10:55;;;;;;;9.70;1.77;;;;;;;;;;6089690;23;20015;-47
2022/03/14 11:13:20;;;;;;;15.65;2.20;;;;;;;;;;6091663;23;20029;-50
2022/03/14 11:15:46;;;;;;;7.05;2.25;;;;;;;;;;6091185;23;20514;-48
2022/03/14 11:18:11;;;;;;;4.72;1.80;;;;;;;;;;6092077;23;20010;-47
2022/03/14 11:20:37;;;;;;;8.10;2.72;;;;;;;;;;6090410;23;20078;-48
2022/03/14 11:23:03;;;;;;;12.93;1.92;;;;;;;;;;6093742;23;20014;-46
2022/03/14 11:25:29;;;;;;;9.07;2.20;;;;;;;;;;6089047;23;20050;-47
2022/03/14 11:27:55;;;;;;;9.13;2.17;;;;;;;;;;6093064;23;20014;-45
2022/03/14 11:30:21;;;;;;;9.68;2.15;;;;;;;;;;6090411;23;20014;-47
2022/03/14 11:32:46;;;;;;;11.20;2.20;;;;;;;;;;6092409;23;20011;-50
2022/03/14 11:35:11;;;;;;;8.48;1.23;;;;;;;;;;6088005;23;20014;-47
2022/03/14 11:37:41;;;;;;;3.10;1.75;;;;;;;;;;6091239;23;20018;-49
2022/03/14 11:40:08;;;;;;;12.55;2.10;;;;;;;;;;6093019;23;20026;-47
2022/03/14 11:42:33;;;;;;;13.02;1.67;;;;;;;;;;6089496;23;20436;-45
2022/03/14 11:45:00;;;;;;;7.60;2.28;;;;;;;;;;6092967;23;20041;-46
2022/03/14 11:47:26;;;;;;;9.75;2.05;;;;;;;;;;6086229;23;20033;-46
2022/03/14 11:49:52;;;;;;;7.93;2.17;;;;;;;;;;6091642;23;20510;-47
2022/03/14 11:52:20;;;;;;;16.13;2.38;;;;;;;;;;6091030;23;20014;-46
2022/03/14 11:54:49;;;;;;;9.05;1.98;;;;;;;;;;6091554;23;20010;-46
2022/03/14 11:57:36;;;;;;;3.72;1.65;;;;;;;;;;6091588;23;20021;-46
2022/03/14 12:00:20;;;;;;;12.13;2.60;;;;;;;;;;6089569;23;20030;-46
2022/03/14 12:02:46;;;;;;;6.32;1.52;;;;;;;;;;6091374;23;20041;-47
2022/03/14 12:05:11;;;;;;;6.18;1.42;;;;;;;;;;6091201;23;20014;-48
2022/03/14 12:07:37;;;;;;;8.68;1.45;;;;;;;;;;6089765;23;20017;-47
2022/03/14 12:10:22;;;;;;;5.97;1.58;;;;;;;;;;6091437;23;20210;-47
2022/03/14 12:12:51;;;;;;;4.35;1.40;;;;;;;;;;6088002;23;20014;-46
2022/03/14 12:15:39;;;;;;;3.63;1.65;;;;;;;;;;6091550;23;20029;-47
2022/03/14 12:18:23;;;;;;;5.88;1.95;;;;;;;;;;6092207;23;20216;-44
2022/03/14 12:20:49;;;;;;;4.28;1.38;;;;;;;;;;6090039;23;20034;-46
2022/03/14 12:23:25;;;;;;;8.55;1.75;;;;;;;;;;6089964;23;20058;-45
2022/03/14 12:25:50;;;;;;;9.13;2.00;;;;;;;;;;6086523;23;20698;-45
2022/03/14 12:28:25;;;;;;;5.18;1.60;;;;;;;;;;6089774;23;20010;-46
2022/03/14 12:30:51;;;;;;;7.97;1.73;;;;;;;;;;6092421;23;20014;-46
2022/03/14 12:33:32;;;;;;;8.18;1.65;;;;;;;;;;6090813;23;20094;-44
2022/03/14 12:36:01;;;;;;;6.95;2.15;;;;;;;;;;6090883;23;20022;-47
2022/03/14 12:38:27;;;;;;;7.22;1.70;;;;;;;;;;6091605;23;20026;-48
2022/03/14 12:40:56;;;;;;;4.60;2.00;;;;;;;;;;6086037;23;20077;-46
2022/03/14 12:43:25;;;;;;;4.55;1.05;;;;;;;;;;6087937;23;20019;-47
2022/03/14 12:45:52;;;;;;;3.03;1.58;;;;;;;;;;6087787;23;20108;-46
2022/03/14 12:48:19;;;;;;;3.97;1.00;;;;;;;;;;6089241;23;20018;-45
2022/03/14 12:50:50;;;;;;;4.90;1.83;;;;;;;;;;6090036;23;20029;-46
2022/03/14 12:53:16;;;;;;;5.68;1.35;;;;;;;;;;6086771;23;20014;-47
2022/03/14 12:55:49;;;;;;;10.80;2.05;;;;;;;;;;6090377;23;20458;-45
2022/03/14 12:58:21;;;;;;;8.88;1.73;;;;;;;;;;6087477;23;20018;-46
2022/03/14 13:00:47;;;;;;;4.30;1.27;;;;;;;;;;6090594;23;20026;-49
2022/03/14 13:03:23;;;;;;;12.38;2.33;;;;;;;;;;6088862;23;20108;-47
2022/03/14 13:05:50;;;;;;;3.08;1.10;;;;;;;;;;6090387;23;20015;-48
2022/03/14 13:08:15;;;;;;;4.68;1.33;;;;;;;;;;6089552;23;20169;-45
2022/03/14 13:10:41;;;;;;;6.93;1.13;;;;;;;;;;6091079;23;20022;-49
2022/03/14 13:13:09;;;;;;;2.63;0.77;;;;;;;;;;6088403;23;20018;-45
2022/03/14 13:15:36;;;;;;;10.15;1.13;;;;;;;;;;6089558;23;20063;-47
2022/03/14 13:18:03;;;;;;;3.03;0.98;;;;;;;;;;6090516;23;20042;-48
2022/03/14 13:20:28;;;;;;;3.72;1.83;;;;;;;;;;6088289;23;20026;-46
2022/03/14 13:22:55;;;;;;;8.35;2.25;;;;;;;;;;6090727;23;20058;-47
2022/03/14 13:25:30;;;;;;;9.35;1.75;;;;;;;;;;6088858;23;20022;-48
2022/03/14 13:27:55;;;;;;;1.83;0.80;;;;;;;;;;6087965;23;20014;-46
2022/03/14 13:30:20;;;;;;;9.20;1.05;;;;;;;;;;6087893;23;20025;-50
2022/03/14 13:32:46;;;;;;;2.33;0.88;;;;;;;;;;6089453;23;20824;-48
2022/03/14 13:35:11;;;;;;;2.70;1.05;;;;;;;;;;6091204;23;20046;-52
2022/03/14 13:37:43;;;;;;;4.18;1.02;;;;;;;;;;6091243;23;20018;-47
2022/03/14 13:40:18;;;;;;;4.25;1.25;;;;;;;;;;6091404;23;20019;-46
2022/03/14 13:42:44;;;;;;;3.55;0.90;;;;;;;;;;6088710;23;20443;-46
2022/03/14 13:45:10;;;;;;;4.03;1.10;;;;;;;;;;6091943;23;20067;-47
2022/03/14 13:47:35;;;;;;;5.70;0.80;;;;;;;;;;6091580;23;20014;-44
2022/03/14 13:50:01;;;;;;;6.82;1.05;;;;;;;;;;6089524;23;20759;-45
2022/03/14 13:52:26;;;;;;;7.95;1.75;;;;;;;;;;6092810;23;20074;-45
2022/03/14 13:54:52;;;;;;;7.50;1.30;;;;;;;;;;6090995;23;20010;-46
2022/03/14 13:57:21;;;;;;;4.93;1.00;;;;;;;;;;6094026;23;20018;-46
2022/03/14 13:59:47;;;;;;;5.18;1.30;;;;;;;;;;6090073;23;20030;-46
2022/03/14 14:02:16;;;;;;;9.20;1.52;;;;;;;;;;6092683;23;20435;-46
2022/03/14 14:04:45;;;;;;;3.50;1.25;;;;;;;;;;6091124;23;20022;-45
2022/03/14 14:07:17;;;;;;;6.78;0.90;;;;;;;;;;6094012;23;20025;-46
2022/03/14 14:09:43;;;;;;;4.20;1.38;;;;;;;;;;6091707;23;20014;-47
2022/03/14 14:12:27;;;;;;;3.15;0.80;;;;;;;;;;6092911;23;20026;-44
2022/03/14 14:14:56;;;;;;;6.30;1.00;;;;;;;;;;6093104;23;20010;-48
2022/03/14 14:17:22;;;;;;;4.97;1.17;;;;;;;;;;6091133;23;20014;-47
2022/03/14 14:20:07;;;;;;;6.32;0.98;;;;;;;;;;6093684;23;20070;-44
2022/03/14 14:22:38;;;;;;;7.05;1.60;;;;;;;;;;6089893;23;20031;-46
2022/03/14 14:25:07;;;;;;;3.30;1.10;;;;;;;;;;6092721;23;20014;-45
2022/03/14 14:27:33;;;;;;;4.20;0.82;;;;;;;;;;6092003;23;20356;-44
2022/03/14 14:30:00;;;;;;;4.72;0.93;;;;;;;;;;6091982;23;20006;-44
2022/03/14 14:32:26;;;;;;;5.55;1.30;;;;;;;;;;6092799;23;20157;-45
2022/03/14 14:34:51;;;;;;;6.95;1.00;;;;;;;;;;6091079;23;20014;-46